sensor_id;sensor_type;location;lat;lon;timestamp;temperature;humidity
2226;DHT22;1119;48.288;8.726;2022-09-09T00:01:28;16.60;91.70
2226;DHT22;1119;48.288;8.726;2022-09-09T00:04:05;16.50;92.00
2226;DHT22;1119;48.288;8.726;2022-09-09T00:06:45;16.50;91.90
2226;DHT22;1119;48.288;8.726;2022-09-09T00:09:17;16.50;92.20
2226;DHT22;1119;48.288;8.726;2022-09-09T00:11:48;16.50;92.30
2226;DHT22;1119;48.288;8.726;2022-09-09T00:14:23;16.50;92.10
2226;DHT22;1119;48.288;8.726;2022-09-09T00:17:00;16.50;92.60
2226;DHT22;1119;48.288;8.726;2022-09-09T00:19:36;16.50;92.70
2226;DHT22;1119;48.288;8.726;2022-09-09T00:22:15;16.60;92.70
2226;DHT22;1119;48.288;8.726;2022-09-09T00:24:45;16.60;92.80
2226;DHT22;1119;48.288;8.726;2022-09-09T00:27:19;16.60;93.00
2226;DHT22;1119;48.288;8.726;2022-09-09T00:29:53;16.60;92.70
2226;DHT22;1119;48.288;8.726;2022-09-09T00:32:28;16.60;93.30
2226;DHT22;1119;48.288;8.726;2022-09-09T00:34:59;16.60;93.20
2226;DHT22;1119;48.288;8.726;2022-09-09T00:37:31;16.60;92.50
2226;DHT22;1119;48.288;8.726;2022-09-09T00:40:02;16.50;91.90
2226;DHT22;1119;48.288;8.726;2022-09-09T00:42:41;16.40;92.70
2226;DHT22;1119;48.288;8.726;2022-09-09T00:45:21;16.30;93.50
2226;DHT22;1119;48.288;8.726;2022-09-09T00:48:00;16.20;92.60
2226;DHT22;1119;48.288;8.726;2022-09-09T00:50:43;16.20;93.30
2226;DHT22;1119;48.288;8.726;2022-09-09T00:53:24;16.20;92.90
2226;DHT22;1119;48.288;8.726;2022-09-09T00:56:04;16.10;92.70
2226;DHT22;1119;48.288;8.726;2022-09-09T00:58:36;16.00;93.60
2226;DHT22;1119;48.288;8.726;2022-09-09T01:01:05;16.00;93.90
2226;DHT22;1119;48.288;8.726;2022-09-09T01:03:40;16.00;93.80
2226;DHT22;1119;48.288;8.726;2022-09-09T01:06:16;16.00;93.60
2226;DHT22;1119;48.288;8.726;2022-09-09T01:09:01;15.90;93.80
2226;DHT22;1119;48.288;8.726;2022-09-09T01:11:37;15.80;94.20
2226;DHT22;1119;48.288;8.726;2022-09-09T01:14:20;15.90;94.30
2226;DHT22;1119;48.288;8.726;2022-09-09T01:16:55;15.90;93.60
2226;DHT22;1119;48.288;8.726;2022-09-09T01:19:45;15.80;93.90
2226;DHT22;1119;48.288;8.726;2022-09-09T01:22:24;15.70;93.50
2226;DHT22;1119;48.288;8.726;2022-09-09T01:25:17;15.60;94.40
2226;DHT22;1119;48.288;8.726;2022-09-09T01:28:08;15.50;94.60
2226;DHT22;1119;48.288;8.726;2022-09-09T01:30:40;15.50;94.70
2226;DHT22;1119;48.288;8.726;2022-09-09T01:33:13;15.40;94.30
2226;DHT22;1119;48.288;8.726;2022-09-09T01:35:46;15.40;94.70
2226;DHT22;1119;48.288;8.726;2022-09-09T01:38:17;15.30;95.50
2226;DHT22;1119;48.288;8.726;2022-09-09T01:40:47;15.40;96.50
2226;DHT22;1119;48.288;8.726;2022-09-09T01:43:16;15.50;95.90
2226;DHT22;1119;48.288;8.726;2022-09-09T01:45:44;15.60;95.90
2226;DHT22;1119;48.288;8.726;2022-09-09T01:48:13;15.60;96.10
2226;DHT22;1119;48.288;8.726;2022-09-09T01:50:50;15.50;95.60
2226;DHT22;1119;48.288;8.726;2022-09-09T01:53:19;15.50;96.10
2226;DHT22;1119;48.288;8.726;2022-09-09T01:55:57;15.50;95.60
2226;DHT22;1119;48.288;8.726;2022-09-09T01:58:41;15.40;96.00
2226;DHT22;1119;48.288;8.726;2022-09-09T02:01:21;15.40;96.60
2226;DHT22;1119;48.288;8.726;2022-09-09T02:03:56;15.40;96.70
2226;DHT22;1119;48.288;8.726;2022-09-09T02:06:30;15.40;96.60
2226;DHT22;1119;48.288;8.726;2022-09-09T02:09:12;15.40;96.50
2226;DHT22;1119;48.288;8.726;2022-09-09T02:11:41;15.40;96.60
2226;DHT22;1119;48.288;8.726;2022-09-09T02:14:23;15.40;97.00
2226;DHT22;1119;48.288;8.726;2022-09-09T02:16:55;15.40;97.10
2226;DHT22;1119;48.288;8.726;2022-09-09T02:19:35;15.40;97.30
2226;DHT22;1119;48.288;8.726;2022-09-09T02:22:32;15.40;97.50
2226;DHT22;1119;48.288;8.726;2022-09-09T02:25:02;15.40;98.10
2226;DHT22;1119;48.288;8.726;2022-09-09T02:27:33;15.40;98.00
2226;DHT22;1119;48.288;8.726;2022-09-09T02:30:04;15.50;97.70
2226;DHT22;1119;48.288;8.726;2022-09-09T02:32:41;15.40;97.50
2226;DHT22;1119;48.288;8.726;2022-09-09T02:35:14;15.40;98.50
2226;DHT22;1119;48.288;8.726;2022-09-09T02:37:44;15.40;98.80
2226;DHT22;1119;48.288;8.726;2022-09-09T02:40:14;15.40;99.40
2226;DHT22;1119;48.288;8.726;2022-09-09T02:42:47;15.40;99.90
2226;DHT22;1119;48.288;8.726;2022-09-09T02:45:20;15.40;99.90
2226;DHT22;1119;48.288;8.726;2022-09-09T02:47:55;15.30;99.90
2226;DHT22;1119;48.288;8.726;2022-09-09T02:50:34;15.30;99.90
2226;DHT22;1119;48.288;8.726;2022-09-09T02:53:10;15.40;99.90
2226;DHT22;1119;48.288;8.726;2022-09-09T02:55:47;15.40;99.90
2226;DHT22;1119;48.288;8.726;2022-09-09T02:58:18;15.40;99.90
2226;DHT22;1119;48.288;8.726;2022-09-09T03:00:57;15.40;99.90
2226;DHT22;1119;48.288;8.726;2022-09-09T03:03:27;15.40;99.90
2226;DHT22;1119;48.288;8.726;2022-09-09T03:05:55;15.30;99.90
2226;DHT22;1119;48.288;8.726;2022-09-09T03:08:25;15.30;99.90
2226;DHT22;1119;48.288;8.726;2022-09-09T03:10:54;15.20;99.90
2226;DHT22;1119;48.288;8.726;2022-09-09T03:13:22;15.10;99.90
2226;DHT22;1119;48.288;8.726;2022-09-09T03:15:49;15.00;99.90
2226;DHT22;1119;48.288;8.726;2022-09-09T03:18:21;15.00;99.90
2226;DHT22;1119;48.288;8.726;2022-09-09T03:20:51;15.00;99.90
2226;DHT22;1119;48.288;8.726;2022-09-09T03:23:20;14.80;99.90
2226;DHT22;1119;48.288;8.726;2022-09-09T03:25:49;14.70;99.90
2226;DHT22;1119;48.288;8.726;2022-09-09T03:28:21;14.70;99.90
2226;DHT22;1119;48.288;8.726;2022-09-09T03:30:51;14.70;99.90
2226;DHT22;1119;48.288;8.726;2022-09-09T03:33:20;14.60;99.90
2226;DHT22;1119;48.288;8.726;2022-09-09T03:35:48;14.50;99.90
2226;DHT22;1119;48.288;8.726;2022-09-09T03:38:16;14.50;99.90
2226;DHT22;1119;48.288;8.726;2022-09-09T03:40:49;14.40;99.90
2226;DHT22;1119;48.288;8.726;2022-09-09T03:43:17;14.30;99.90
2226;DHT22;1119;48.288;8.726;2022-09-09T03:45:45;14.30;99.90
2226;DHT22;1119;48.288;8.726;2022-09-09T03:48:15;14.20;99.90
2226;DHT22;1119;48.288;8.726;2022-09-09T03:50:46;14.10;99.90
2226;DHT22;1119;48.288;8.726;2022-09-09T03:53:14;14.10;99.90
2226;DHT22;1119;48.288;8.726;2022-09-09T03:55:44;14.20;99.90
2226;DHT22;1119;48.288;8.726;2022-09-09T03:58:12;14.20;99.90
2226;DHT22;1119;48.288;8.726;2022-09-09T04:00:40;14.20;99.90
2226;DHT22;1119;48.288;8.726;2022-09-09T04:03:08;14.20;99.90
2226;DHT22;1119;48.288;8.726;2022-09-09T04:05:35;14.20;99.90
2226;DHT22;1119;48.288;8.726;2022-09-09T04:08:07;14.20;99.90
2226;DHT22;1119;48.288;8.726;2022-09-09T04:10:34;14.10;99.90
2226;DHT22;1119;48.288;8.726;2022-09-09T04:13:04;14.10;99.90
2226;DHT22;1119;48.288;8.726;2022-09-09T04:15:31;14.10;99.90
2226;DHT22;1119;48.288;8.726;2022-09-09T04:18:00;14.10;99.90
2226;DHT22;1119;48.288;8.726;2022-09-09T04:20:27;14.10;99.90
2226;DHT22;1119;48.288;8.726;2022-09-09T04:22:56;14.10;99.90
2226;DHT22;1119;48.288;8.726;2022-09-09T04:25:24;14.00;99.90
2226;DHT22;1119;48.288;8.726;2022-09-09T04:27:53;14.10;99.90
2226;DHT22;1119;48.288;8.726;2022-09-09T04:30:21;14.20;99.90
2226;DHT22;1119;48.288;8.726;2022-09-09T04:32:48;14.20;99.90
2226;DHT22;1119;48.288;8.726;2022-09-09T04:35:15;14.30;99.90
2226;DHT22;1119;48.288;8.726;2022-09-09T04:37:44;14.40;99.90
2226;DHT22;1119;48.288;8.726;2022-09-09T04:40:11;14.50;99.90
2226;DHT22;1119;48.288;8.726;2022-09-09T04:42:40;14.50;99.90
2226;DHT22;1119;48.288;8.726;2022-09-09T04:45:12;14.50;99.90
2226;DHT22;1119;48.288;8.726;2022-09-09T04:47:41;14.50;99.90
2226;DHT22;1119;48.288;8.726;2022-09-09T04:50:09;14.60;99.90
2226;DHT22;1119;48.288;8.726;2022-09-09T04:52:37;14.60;99.90
2226;DHT22;1119;48.288;8.726;2022-09-09T04:55:07;14.70;99.90
2226;DHT22;1119;48.288;8.726;2022-09-09T04:57:35;14.80;99.90
2226;DHT22;1119;48.288;8.726;2022-09-09T05:00:06;14.90;99.90
2226;DHT22;1119;48.288;8.726;2022-09-09T05:02:37;15.00;99.90
2226;DHT22;1119;48.288;8.726;2022-09-09T05:05:05;15.10;99.90
2226;DHT22;1119;48.288;8.726;2022-09-09T05:07:33;15.10;99.90
2226;DHT22;1119;48.288;8.726;2022-09-09T05:10:00;15.20;99.90
2226;DHT22;1119;48.288;8.726;2022-09-09T05:12:30;15.20;99.90
2226;DHT22;1119;48.288;8.726;2022-09-09T05:14:58;15.30;99.90
2226;DHT22;1119;48.288;8.726;2022-09-09T05:17:27;15.30;99.90
2226;DHT22;1119;48.288;8.726;2022-09-09T05:19:54;15.40;99.90
2226;DHT22;1119;48.288;8.726;2022-09-09T05:22:22;15.40;99.90
2226;DHT22;1119;48.288;8.726;2022-09-09T05:24:51;15.30;99.90
2226;DHT22;1119;48.288;8.726;2022-09-09T05:27:18;15.30;99.90
2226;DHT22;1119;48.288;8.726;2022-09-09T05:29:47;15.30;99.90
2226;DHT22;1119;48.288;8.726;2022-09-09T05:32:14;15.30;99.90
2226;DHT22;1119;48.288;8.726;2022-09-09T05:34:47;15.30;99.90
2226;DHT22;1119;48.288;8.726;2022-09-09T05:37:14;15.30;99.90
2226;DHT22;1119;48.288;8.726;2022-09-09T05:39:42;15.30;99.90
2226;DHT22;1119;48.288;8.726;2022-09-09T05:42:09;15.30;99.90
2226;DHT22;1119;48.288;8.726;2022-09-09T05:44:37;15.30;99.90
2226;DHT22;1119;48.288;8.726;2022-09-09T05:47:05;15.50;99.90
2226;DHT22;1119;48.288;8.726;2022-09-09T05:49:33;15.80;99.90
2226;DHT22;1119;48.288;8.726;2022-09-09T05:52:02;15.90;99.90
2226;DHT22;1119;48.288;8.726;2022-09-09T05:54:30;15.80;99.90
2226;DHT22;1119;48.288;8.726;2022-09-09T05:56:58;15.80;99.90
2226;DHT22;1119;48.288;8.726;2022-09-09T05:59:25;15.90;99.90
2226;DHT22;1119;48.288;8.726;2022-09-09T06:01:55;15.90;99.90
2226;DHT22;1119;48.288;8.726;2022-09-09T06:04:28;15.80;99.90
2226;DHT22;1119;48.288;8.726;2022-09-09T06:06:56;15.80;99.90
2226;DHT22;1119;48.288;8.726;2022-09-09T06:09:24;15.70;99.90
2226;DHT22;1119;48.288;8.726;2022-09-09T06:11:52;15.60;99.90
2226;DHT22;1119;48.288;8.726;2022-09-09T06:14:21;15.60;99.90
2226;DHT22;1119;48.288;8.726;2022-09-09T06:16:51;15.60;99.90
2226;DHT22;1119;48.288;8.726;2022-09-09T06:19:24;15.60;99.90
2226;DHT22;1119;48.288;8.726;2022-09-09T06:21:55;15.60;99.90
2226;DHT22;1119;48.288;8.726;2022-09-09T06:24:23;15.60;99.90
2226;DHT22;1119;48.288;8.726;2022-09-09T06:26:51;15.60;99.90
2226;DHT22;1119;48.288;8.726;2022-09-09T06:29:22;15.60;99.90
2226;DHT22;1119;48.288;8.726;2022-09-09T06:31:51;15.70;99.90
2226;DHT22;1119;48.288;8.726;2022-09-09T06:34:23;15.80;99.90
2226;DHT22;1119;48.288;8.726;2022-09-09T06:36:54;15.70;99.90
2226;DHT22;1119;48.288;8.726;2022-09-09T06:39:24;15.80;99.90
2226;DHT22;1119;48.288;8.726;2022-09-09T06:41:52;15.80;99.90
2226;DHT22;1119;48.288;8.726;2022-09-09T06:44:38;15.80;99.90
2226;DHT22;1119;48.288;8.726;2022-09-09T06:47:09;15.80;99.90
2226;DHT22;1119;48.288;8.726;2022-09-09T06:49:38;15.90;99.90
2226;DHT22;1119;48.288;8.726;2022-09-09T06:52:08;15.90;99.90
2226;DHT22;1119;48.288;8.726;2022-09-09T06:54:37;15.90;99.90
2226;DHT22;1119;48.288;8.726;2022-09-09T06:57:05;15.90;99.90
2226;DHT22;1119;48.288;8.726;2022-09-09T06:59:34;16.00;99.90
2226;DHT22;1119;48.288;8.726;2022-09-09T07:02:02;16.00;99.90
2226;DHT22;1119;48.288;8.726;2022-09-09T07:04:30;16.10;99.90
2226;DHT22;1119;48.288;8.726;2022-09-09T07:06:57;16.00;99.90
2226;DHT22;1119;48.288;8.726;2022-09-09T07:09:25;16.10;99.90
2226;DHT22;1119;48.288;8.726;2022-09-09T07:11:54;16.10;99.90
2226;DHT22;1119;48.288;8.726;2022-09-09T07:14:26;16.10;99.90
2226;DHT22;1119;48.288;8.726;2022-09-09T07:16:57;16.10;99.90
2226;DHT22;1119;48.288;8.726;2022-09-09T07:19:26;16.10;99.90
2226;DHT22;1119;48.288;8.726;2022-09-09T07:21:54;16.10;99.90
2226;DHT22;1119;48.288;8.726;2022-09-09T07:24:24;16.10;99.90
2226;DHT22;1119;48.288;8.726;2022-09-09T07:26:53;16.10;99.90
2226;DHT22;1119;48.288;8.726;2022-09-09T07:29:20;16.10;99.90
2226;DHT22;1119;48.288;8.726;2022-09-09T07:31:49;16.10;99.90
2226;DHT22;1119;48.288;8.726;2022-09-09T07:34:23;16.10;99.90
2226;DHT22;1119;48.288;8.726;2022-09-09T07:36:51;16.10;99.90
2226;DHT22;1119;48.288;8.726;2022-09-09T07:39:19;16.00;99.90
2226;DHT22;1119;48.288;8.726;2022-09-09T07:41:50;16.10;99.90
2226;DHT22;1119;48.288;8.726;2022-09-09T07:44:23;16.00;99.90
2226;DHT22;1119;48.288;8.726;2022-09-09T07:47:03;16.00;99.90
2226;DHT22;1119;48.288;8.726;2022-09-09T07:49:38;16.00;99.90
2226;DHT22;1119;48.288;8.726;2022-09-09T07:52:07;16.00;99.90
2226;DHT22;1119;48.288;8.726;2022-09-09T07:54:34;16.00;99.90
2226;DHT22;1119;48.288;8.726;2022-09-09T07:57:04;16.10;99.90
2226;DHT22;1119;48.288;8.726;2022-09-09T07:59:35;16.10;99.90
2226;DHT22;1119;48.288;8.726;2022-09-09T08:02:03;16.20;99.90
2226;DHT22;1119;48.288;8.726;2022-09-09T08:04:33;16.30;99.90
2226;DHT22;1119;48.288;8.726;2022-09-09T08:07:02;16.40;99.90
2226;DHT22;1119;48.288;8.726;2022-09-09T08:09:35;16.40;99.90
2226;DHT22;1119;48.288;8.726;2022-09-09T08:12:11;16.50;99.90
2226;DHT22;1119;48.288;8.726;2022-09-09T08:14:40;16.50;99.90
2226;DHT22;1119;48.288;8.726;2022-09-09T08:17:07;16.50;99.90
2226;DHT22;1119;48.288;8.726;2022-09-09T08:19:35;16.60;99.90
2226;DHT22;1119;48.288;8.726;2022-09-09T08:22:04;16.60;99.90
2226;DHT22;1119;48.288;8.726;2022-09-09T08:24:35;16.60;99.90
2226;DHT22;1119;48.288;8.726;2022-09-09T08:27:02;16.80;99.90
2226;DHT22;1119;48.288;8.726;2022-09-09T08:29:31;17.00;99.90
2226;DHT22;1119;48.288;8.726;2022-09-09T08:31:59;17.30;99.90
2226;DHT22;1119;48.288;8.726;2022-09-09T08:34:28;18.00;99.90
2226;DHT22;1119;48.288;8.726;2022-09-09T08:36:59;18.80;99.90
2226;DHT22;1119;48.288;8.726;2022-09-09T08:39:34;19.40;99.90
2226;DHT22;1119;48.288;8.726;2022-09-09T08:42:24;19.50;99.90
2226;DHT22;1119;48.288;8.726;2022-09-09T08:45:14;19.50;99.90
2226;DHT22;1119;48.288;8.726;2022-09-09T08:47:58;19.50;99.90
2226;DHT22;1119;48.288;8.726;2022-09-09T08:50:34;19.50;99.90
2226;DHT22;1119;48.288;8.726;2022-09-09T08:53:21;19.60;99.80
2226;DHT22;1119;48.288;8.726;2022-09-09T08:55:53;19.70;99.00
2226;DHT22;1119;48.288;8.726;2022-09-09T08:58:32;20.10;98.70
2226;DHT22;1119;48.288;8.726;2022-09-09T09:01:22;20.50;97.40
2226;DHT22;1119;48.288;8.726;2022-09-09T09:04:05;20.80;97.40
2226;DHT22;1119;48.288;8.726;2022-09-09T09:06:49;21.10;96.30
2226;DHT22;1119;48.288;8.726;2022-09-09T09:09:23;21.20;95.70
2226;DHT22;1119;48.288;8.726;2022-09-09T09:12:15;21.30;94.10
2226;DHT22;1119;48.288;8.726;2022-09-09T09:14:44;21.40;94.80
2226;DHT22;1119;48.288;8.726;2022-09-09T09:17:15;21.30;93.60
2226;DHT22;1119;48.288;8.726;2022-09-09T09:19:48;21.00;94.00
2226;DHT22;1119;48.288;8.726;2022-09-09T09:22:18;20.60;94.70
2226;DHT22;1119;48.288;8.726;2022-09-09T09:24:52;20.10;95.40
2226;DHT22;1119;48.288;8.726;2022-09-09T09:27:31;19.70;96.40
2226;DHT22;1119;48.288;8.726;2022-09-09T09:30:14;19.40;96.60
2226;DHT22;1119;48.288;8.726;2022-09-09T09:32:50;19.20;97.30
2226;DHT22;1119;48.288;8.726;2022-09-09T09:35:22;19.00;97.60
2226;DHT22;1119;48.288;8.726;2022-09-09T09:37:50;18.90;98.30
2226;DHT22;1119;48.288;8.726;2022-09-09T09:40:19;19.00;98.60
2226;DHT22;1119;48.288;8.726;2022-09-09T09:42:50;19.20;98.60
2226;DHT22;1119;48.288;8.726;2022-09-09T09:45:28;19.50;97.70
2226;DHT22;1119;48.288;8.726;2022-09-09T09:47:59;19.70;96.20
2226;DHT22;1119;48.288;8.726;2022-09-09T09:50:31;20.10;95.70
2226;DHT22;1119;48.288;8.726;2022-09-09T09:53:02;20.20;94.90
2226;DHT22;1119;48.288;8.726;2022-09-09T09:55:35;20.20;94.80
2226;DHT22;1119;48.288;8.726;2022-09-09T09:58:04;20.30;94.90
2226;DHT22;1119;48.288;8.726;2022-09-09T10:00:33;20.40;94.00
2226;DHT22;1119;48.288;8.726;2022-09-09T10:03:18;20.60;94.00
2226;DHT22;1119;48.288;8.726;2022-09-09T10:05:51;20.80;92.60
2226;DHT22;1119;48.288;8.726;2022-09-09T10:08:18;20.80;92.10
2226;DHT22;1119;48.288;8.726;2022-09-09T10:11:16;20.80;91.70
2226;DHT22;1119;48.288;8.726;2022-09-09T10:13:56;20.90;91.70
2226;DHT22;1119;48.288;8.726;2022-09-09T10:16:39;20.90;90.30
2226;DHT22;1119;48.288;8.726;2022-09-09T10:19:15;21.00;88.70
2226;DHT22;1119;48.288;8.726;2022-09-09T10:22:04;21.00;89.80
2226;DHT22;1119;48.288;8.726;2022-09-09T10:25:10;21.00;89.60
2226;DHT22;1119;48.288;8.726;2022-09-09T10:27:55;21.10;90.40
2226;DHT22;1119;48.288;8.726;2022-09-09T10:30:34;21.10;88.30
2226;DHT22;1119;48.288;8.726;2022-09-09T10:33:10;21.00;89.60
2226;DHT22;1119;48.288;8.726;2022-09-09T10:35:46;21.00;89.50
2226;DHT22;1119;48.288;8.726;2022-09-09T10:38:23;21.00;90.30
2226;DHT22;1119;48.288;8.726;2022-09-09T10:41:12;21.10;88.50
2226;DHT22;1119;48.288;8.726;2022-09-09T10:44:13;21.00;88.30
2226;DHT22;1119;48.288;8.726;2022-09-09T10:47:20;20.80;78.90
2226;DHT22;1119;48.288;8.726;2022-09-09T10:50:23;20.50;76.70
2226;DHT22;1119;48.288;8.726;2022-09-09T10:53:01;20.30;73.70
2226;DHT22;1119;48.288;8.726;2022-09-09T10:55:38;20.40;71.60
2226;DHT22;1119;48.288;8.726;2022-09-09T10:58:11;20.50;70.30
2226;DHT22;1119;48.288;8.726;2022-09-09T11:00:44;20.70;71.00
2226;DHT22;1119;48.288;8.726;2022-09-09T11:03:17;21.00;68.20
2226;DHT22;1119;48.288;8.726;2022-09-09T11:05:49;21.20;67.30
2226;DHT22;1119;48.288;8.726;2022-09-09T11:08:21;21.40;67.30
2226;DHT22;1119;48.288;8.726;2022-09-09T11:10:55;21.40;64.60
2226;DHT22;1119;48.288;8.726;2022-09-09T11:13:32;21.60;64.90
2226;DHT22;1119;48.288;8.726;2022-09-09T11:16:11;21.70;64.70
2226;DHT22;1119;48.288;8.726;2022-09-09T11:18:46;21.70;66.40
2226;DHT22;1119;48.288;8.726;2022-09-09T11:21:21;21.80;68.40
2226;DHT22;1119;48.288;8.726;2022-09-09T11:23:53;21.70;68.70
2226;DHT22;1119;48.288;8.726;2022-09-09T11:26:29;21.60;67.50
2226;DHT22;1119;48.288;8.726;2022-09-09T11:32:34;21.50;65.60
2226;DHT22;1119;48.288;8.726;2022-09-09T11:35:28;21.50;65.80
2226;DHT22;1119;48.288;8.726;2022-09-09T11:38:21;21.40;66.00
2226;DHT22;1119;48.288;8.726;2022-09-09T11:40:59;21.30;63.10
2226;DHT22;1119;48.288;8.726;2022-09-09T11:43:31;21.30;65.00
2226;DHT22;1119;48.288;8.726;2022-09-09T11:46:01;21.30;64.10
2226;DHT22;1119;48.288;8.726;2022-09-09T11:48:32;21.20;64.60
2226;DHT22;1119;48.288;8.726;2022-09-09T11:51:05;21.40;71.50
2226;DHT22;1119;48.288;8.726;2022-09-09T11:53:33;21.50;73.30
2226;DHT22;1119;48.288;8.726;2022-09-09T11:56:12;21.40;73.10
2226;DHT22;1119;48.288;8.726;2022-09-09T11:58:54;21.30;74.60
2226;DHT22;1119;48.288;8.726;2022-09-09T12:01:41;21.00;75.90
2226;DHT22;1119;48.288;8.726;2022-09-09T12:04:25;20.60;77.40
2226;DHT22;1119;48.288;8.726;2022-09-09T12:06:58;20.20;79.10
2226;DHT22;1119;48.288;8.726;2022-09-09T12:09:41;20.00;78.20
2226;DHT22;1119;48.288;8.726;2022-09-09T12:12:27;19.80;76.90
2226;DHT22;1119;48.288;8.726;2022-09-09T12:17:50;19.40;77.10
2226;DHT22;1119;48.288;8.726;2022-09-09T12:21:02;19.30;76.80
2226;DHT22;1119;48.288;8.726;2022-09-09T12:23:40;19.40;78.90
2226;DHT22;1119;48.288;8.726;2022-09-09T12:26:26;19.80;78.30
2226;DHT22;1119;48.288;8.726;2022-09-09T12:29:05;20.30;74.90
2226;DHT22;1119;48.288;8.726;2022-09-09T12:31:46;20.50;72.80
2226;DHT22;1119;48.288;8.726;2022-09-09T12:34:32;20.70;73.60
2226;DHT22;1119;48.288;8.726;2022-09-09T12:37:06;20.70;72.80
2226;DHT22;1119;48.288;8.726;2022-09-09T12:39:41;20.60;72.50
2226;DHT22;1119;48.288;8.726;2022-09-09T12:42:20;20.50;72.50
2226;DHT22;1119;48.288;8.726;2022-09-09T12:44:55;20.60;73.50
2226;DHT22;1119;48.288;8.726;2022-09-09T12:47:28;20.90;73.30
2226;DHT22;1119;48.288;8.726;2022-09-09T12:50:01;21.10;72.60
2226;DHT22;1119;48.288;8.726;2022-09-09T12:52:30;21.20;71.30
2226;DHT22;1119;48.288;8.726;2022-09-09T12:55:01;21.30;69.60
2226;DHT22;1119;48.288;8.726;2022-09-09T12:57:34;21.30;67.10
2226;DHT22;1119;48.288;8.726;2022-09-09T13:00:11;21.40;66.40
2226;DHT22;1119;48.288;8.726;2022-09-09T13:02:51;21.50;64.10
2226;DHT22;1119;48.288;8.726;2022-09-09T13:05:22;21.30;65.30
2226;DHT22;1119;48.288;8.726;2022-09-09T13:07:51;21.20;65.90
2226;DHT22;1119;48.288;8.726;2022-09-09T13:10:25;21.10;67.20
2226;DHT22;1119;48.288;8.726;2022-09-09T13:12:53;21.10;64.50
2226;DHT22;1119;48.288;8.726;2022-09-09T13:15:22;21.20;65.00
2226;DHT22;1119;48.288;8.726;2022-09-09T13:17:55;21.20;63.60
2226;DHT22;1119;48.288;8.726;2022-09-09T13:20:24;21.20;64.80
2226;DHT22;1119;48.288;8.726;2022-09-09T13:22:52;21.20;63.90
2226;DHT22;1119;48.288;8.726;2022-09-09T13:25:23;21.10;64.80
2226;DHT22;1119;48.288;8.726;2022-09-09T13:27:57;20.90;65.20
2226;DHT22;1119;48.288;8.726;2022-09-09T13:30:28;20.80;65.60
2226;DHT22;1119;48.288;8.726;2022-09-09T13:33:19;20.80;67.80
2226;DHT22;1119;48.288;8.726;2022-09-09T13:35:50;20.90;68.70
2226;DHT22;1119;48.288;8.726;2022-09-09T13:38:19;20.80;69.00
2226;DHT22;1119;48.288;8.726;2022-09-09T13:40:56;20.60;67.70
2226;DHT22;1119;48.288;8.726;2022-09-09T13:43:26;20.50;67.00
2226;DHT22;1119;48.288;8.726;2022-09-09T13:45:55;20.40;66.80
2226;DHT22;1119;48.288;8.726;2022-09-09T13:48:25;20.40;66.70
2226;DHT22;1119;48.288;8.726;2022-09-09T13:50:57;20.40;67.10
2226;DHT22;1119;48.288;8.726;2022-09-09T13:53:27;20.40;66.50
2226;DHT22;1119;48.288;8.726;2022-09-09T13:55:54;20.60;67.70
2226;DHT22;1119;48.288;8.726;2022-09-09T13:58:22;20.60;66.50
2226;DHT22;1119;48.288;8.726;2022-09-09T14:00:51;20.60;66.40
2226;DHT22;1119;48.288;8.726;2022-09-09T14:03:19;20.60;66.20
2226;DHT22;1119;48.288;8.726;2022-09-09T14:05:48;20.60;67.20
2226;DHT22;1119;48.288;8.726;2022-09-09T14:08:21;20.60;65.70
2226;DHT22;1119;48.288;8.726;2022-09-09T14:10:50;20.70;65.10
2226;DHT22;1119;48.288;8.726;2022-09-09T14:13:18;20.80;65.80
2226;DHT22;1119;48.288;8.726;2022-09-09T14:15:48;20.90;64.50
2226;DHT22;1119;48.288;8.726;2022-09-09T14:18:16;20.80;65.10
2226;DHT22;1119;48.288;8.726;2022-09-09T14:20:44;20.70;64.80
2226;DHT22;1119;48.288;8.726;2022-09-09T14:23:12;20.60;66.50
2226;DHT22;1119;48.288;8.726;2022-09-09T14:25:41;20.50;68.30
2226;DHT22;1119;48.288;8.726;2022-09-09T14:28:10;20.40;67.10
2226;DHT22;1119;48.288;8.726;2022-09-09T14:30:39;20.30;68.40
2226;DHT22;1119;48.288;8.726;2022-09-09T14:33:07;20.20;68.10
2226;DHT22;1119;48.288;8.726;2022-09-09T14:35:34;20.10;68.50
2226;DHT22;1119;48.288;8.726;2022-09-09T14:38:02;20.00;69.40
2226;DHT22;1119;48.288;8.726;2022-09-09T14:40:31;19.90;67.50
2226;DHT22;1119;48.288;8.726;2022-09-09T14:42:59;19.80;69.20
2226;DHT22;1119;48.288;8.726;2022-09-09T14:45:26;19.70;70.60
2226;DHT22;1119;48.288;8.726;2022-09-09T14:47:54;19.70;70.90
2226;DHT22;1119;48.288;8.726;2022-09-09T14:50:22;19.80;70.60
2226;DHT22;1119;48.288;8.726;2022-09-09T14:52:50;19.70;68.90
2226;DHT22;1119;48.288;8.726;2022-09-09T14:55:17;19.60;67.30
2226;DHT22;1119;48.288;8.726;2022-09-09T14:57:46;19.50;67.10
2226;DHT22;1119;48.288;8.726;2022-09-09T15:00:13;19.30;68.00
2226;DHT22;1119;48.288;8.726;2022-09-09T15:02:41;19.20;68.70
2226;DHT22;1119;48.288;8.726;2022-09-09T15:05:09;19.10;69.00
2226;DHT22;1119;48.288;8.726;2022-09-09T15:07:36;19.00;70.00
2226;DHT22;1119;48.288;8.726;2022-09-09T15:10:04;18.90;70.20
2226;DHT22;1119;48.288;8.726;2022-09-09T15:12:32;18.90;70.70
2226;DHT22;1119;48.288;8.726;2022-09-09T15:15:02;18.90;71.00
2226;DHT22;1119;48.288;8.726;2022-09-09T15:17:30;18.90;72.10
2226;DHT22;1119;48.288;8.726;2022-09-09T15:19:58;19.00;71.40
2226;DHT22;1119;48.288;8.726;2022-09-09T15:22:25;19.20;71.80
2226;DHT22;1119;48.288;8.726;2022-09-09T15:24:52;19.30;70.60
2226;DHT22;1119;48.288;8.726;2022-09-09T15:27:19;19.30;70.70
2226;DHT22;1119;48.288;8.726;2022-09-09T15:29:46;19.30;70.20
2226;DHT22;1119;48.288;8.726;2022-09-09T15:32:15;19.30;69.30
2226;DHT22;1119;48.288;8.726;2022-09-09T15:34:42;19.10;68.30
2226;DHT22;1119;48.288;8.726;2022-09-09T15:37:10;19.20;69.30
2226;DHT22;1119;48.288;8.726;2022-09-09T15:39:38;19.30;69.20
2226;DHT22;1119;48.288;8.726;2022-09-09T15:42:06;19.40;70.00
2226;DHT22;1119;48.288;8.726;2022-09-09T15:44:38;19.60;68.10
2226;DHT22;1119;48.288;8.726;2022-09-09T15:47:07;19.70;68.80
2226;DHT22;1119;48.288;8.726;2022-09-09T15:49:39;19.70;66.50
2226;DHT22;1119;48.288;8.726;2022-09-09T15:52:06;19.70;66.00
2226;DHT22;1119;48.288;8.726;2022-09-09T15:54:36;19.60;68.80
2226;DHT22;1119;48.288;8.726;2022-09-09T15:57:06;19.60;67.10
2226;DHT22;1119;48.288;8.726;2022-09-09T15:59:34;19.60;67.10
2226;DHT22;1119;48.288;8.726;2022-09-09T16:02:01;19.50;68.80
2226;DHT22;1119;48.288;8.726;2022-09-09T16:04:29;19.40;68.50
2226;DHT22;1119;48.288;8.726;2022-09-09T16:07:00;19.40;69.50
2226;DHT22;1119;48.288;8.726;2022-09-09T16:09:29;19.40;69.80
2226;DHT22;1119;48.288;8.726;2022-09-09T16:11:57;19.40;69.20
2226;DHT22;1119;48.288;8.726;2022-09-09T16:14:26;19.30;69.00
2226;DHT22;1119;48.288;8.726;2022-09-09T16:16:54;19.20;70.10
2226;DHT22;1119;48.288;8.726;2022-09-09T16:19:21;19.10;70.10
2226;DHT22;1119;48.288;8.726;2022-09-09T16:21:49;19.10;70.60
2226;DHT22;1119;48.288;8.726;2022-09-09T16:24:19;19.10;70.00
2226;DHT22;1119;48.288;8.726;2022-09-09T16:26:48;19.00;69.50
2226;DHT22;1119;48.288;8.726;2022-09-09T16:29:17;19.00;71.20
2226;DHT22;1119;48.288;8.726;2022-09-09T16:31:48;19.00;70.50
2226;DHT22;1119;48.288;8.726;2022-09-09T16:34:16;19.00;70.10
2226;DHT22;1119;48.288;8.726;2022-09-09T16:36:44;19.00;70.50
2226;DHT22;1119;48.288;8.726;2022-09-09T16:39:14;19.00;69.50
2226;DHT22;1119;48.288;8.726;2022-09-09T16:41:45;19.00;71.50
2226;DHT22;1119;48.288;8.726;2022-09-09T16:44:14;18.90;71.40